sensor_id;sensor_type;location;lat;lon;timestamp;temperature;humidity
45619;DHT22;31343;47.520;19.144;2022-12-07T00:01:10;3.60;99.90
45619;DHT22;31343;47.520;19.144;2022-12-07T00:03:37;3.60;99.90
45619;DHT22;31343;47.520;19.144;2022-12-07T00:06:04;3.50;99.90
45619;DHT22;31343;47.520;19.144;2022-12-07T00:08:31;3.50;99.90
45619;DHT22;31343;47.520;19.144;2022-12-07T00:11:07;3.50;99.90
45619;DHT22;31343;47.520;19.144;2022-12-07T00:13:34;3.50;99.90
45619;DHT22;31343;47.520;19.144;2022-12-07T00:16:09;3.40;99.90
45619;DHT22;31343;47.520;19.144;2022-12-07T00:18:35;3.30;99.90
45619;DHT22;31343;47.520;19.144;2022-12-07T00:21:03;3.20;99.90
45619;DHT22;31343;47.520;19.144;2022-12-07T00:23:29;3.10;99.90
45619;DHT22;31343;47.520;19.144;2022-12-07T00:25:55;3.00;99.90
45619;DHT22;31343;47.520;19.144;2022-12-07T00:28:21;3.00;99.90
45619;DHT22;31343;47.520;19.144;2022-12-07T00:30:46;3.00;99.90
45619;DHT22;31343;47.520;19.144;2022-12-07T00:33:12;2.90;99.90
45619;DHT22;31343;47.520;19.144;2022-12-07T00:35:37;2.80;99.90
45619;DHT22;31343;47.520;19.144;2022-12-07T00:38:03;2.70;99.90
45619;DHT22;31343;47.520;19.144;2022-12-07T00:40:29;2.70;99.90
45619;DHT22;31343;47.520;19.144;2022-12-07T00:42:54;2.70;99.90
45619;DHT22;31343;47.520;19.144;2022-12-07T00:45:20;2.80;99.90
45619;DHT22;31343;47.520;19.144;2022-12-07T00:47:46;2.80;99.90
45619;DHT22;31343;47.520;19.144;2022-12-07T00:50:11;2.80;99.90
45619;DHT22;31343;47.520;19.144;2022-12-07T00:52:37;2.70;99.90
45619;DHT22;31343;47.520;19.144;2022-12-07T00:55:03;2.70;99.90
45619;DHT22;31343;47.520;19.144;2022-12-07T00:57:30;2.70;99.90
45619;DHT22;31343;47.520;19.144;2022-12-07T00:59:56;2.60;99.90
45619;DHT22;31343;47.520;19.144;2022-12-07T01:02:23;2.60;99.90
45619;DHT22;31343;47.520;19.144;2022-12-07T01:04:49;2.60;99.90
45619;DHT22;31343;47.520;19.144;2022-12-07T01:07:14;2.60;99.90
45619;DHT22;31343;47.520;19.144;2022-12-07T01:09:40;2.40;99.90
45619;DHT22;31343;47.520;19.144;2022-12-07T01:12:06;2.30;99.90
45619;DHT22;31343;47.520;19.144;2022-12-07T01:14:32;2.20;99.90
45619;DHT22;31343;47.520;19.144;2022-12-07T01:16:57;2.20;99.90
45619;DHT22;31343;47.520;19.144;2022-12-07T01:19:23;2.20;99.90
45619;DHT22;31343;47.520;19.144;2022-12-07T01:21:49;2.30;99.90
45619;DHT22;31343;47.520;19.144;2022-12-07T01:24:14;2.10;99.90
45619;DHT22;31343;47.520;19.144;2022-12-07T01:26:41;2.10;99.90
45619;DHT22;31343;47.520;19.144;2022-12-07T01:29:07;2.10;99.90
45619;DHT22;31343;47.520;19.144;2022-12-07T01:31:33;1.90;99.90
45619;DHT22;31343;47.520;19.144;2022-12-07T01:33:59;1.90;99.90
45619;DHT22;31343;47.520;19.144;2022-12-07T01:36:31;1.90;99.90
45619;DHT22;31343;47.520;19.144;2022-12-07T01:38:59;1.80;99.90
45619;DHT22;31343;47.520;19.144;2022-12-07T01:41:28;1.80;99.90
45619;DHT22;31343;47.520;19.144;2022-12-07T01:46:38;1.60;99.90
45619;DHT22;31343;47.520;19.144;2022-12-07T01:49:12;1.60;99.90
45619;DHT22;31343;47.520;19.144;2022-12-07T01:51:40;1.60;99.90
45619;DHT22;31343;47.520;19.144;2022-12-07T01:54:07;1.60;99.90
45619;DHT22;31343;47.520;19.144;2022-12-07T01:56:34;1.60;99.90
45619;DHT22;31343;47.520;19.144;2022-12-07T01:59:00;1.60;99.90
45619;DHT22;31343;47.520;19.144;2022-12-07T02:01:26;1.60;99.90
45619;DHT22;31343;47.520;19.144;2022-12-07T02:03:52;1.60;99.90
45619;DHT22;31343;47.520;19.144;2022-12-07T02:06:21;1.60;99.90
45619;DHT22;31343;47.520;19.144;2022-12-07T02:08:47;1.60;99.90
45619;DHT22;31343;47.520;19.144;2022-12-07T02:11:14;1.60;99.90
45619;DHT22;31343;47.520;19.144;2022-12-07T02:13:41;1.70;99.90
45619;DHT22;31343;47.520;19.144;2022-12-07T02:37:50;1.70;99.90
45619;DHT22;31343;47.520;19.144;2022-12-07T02:40:43;1.80;99.90
45619;DHT22;31343;47.520;19.144;2022-12-07T02:43:39;1.80;99.90
45619;DHT22;31343;47.520;19.144;2022-12-07T02:46:14;1.80;99.90
45619;DHT22;31343;47.520;19.144;2022-12-07T02:48:41;1.80;99.90
45619;DHT22;31343;47.520;19.144;2022-12-07T02:51:08;1.80;99.90
45619;DHT22;31343;47.520;19.144;2022-12-07T02:53:36;1.90;99.90
45619;DHT22;31343;47.520;19.144;2022-12-07T02:59:25;1.80;99.90
45619;DHT22;31343;47.520;19.144;2022-12-07T03:02:15;1.80;99.90
45619;DHT22;31343;47.520;19.144;2022-12-07T03:05:05;1.80;99.90
45619;DHT22;31343;47.520;19.144;2022-12-07T03:13:02;2.00;99.90
45619;DHT22;31343;47.520;19.144;2022-12-07T03:15:34;1.90;99.90
45619;DHT22;31343;47.520;19.144;2022-12-07T03:18:02;1.90;99.90
45619;DHT22;31343;47.520;19.144;2022-12-07T03:20:29;1.90;99.90
45619;DHT22;31343;47.520;19.144;2022-12-07T03:22:56;1.90;99.90
45619;DHT22;31343;47.520;19.144;2022-12-07T03:25:22;2.00;99.90
45619;DHT22;31343;47.520;19.144;2022-12-07T03:27:55;2.00;99.90
45619;DHT22;31343;47.520;19.144;2022-12-07T03:30:34;2.00;99.90
45619;DHT22;31343;47.520;19.144;2022-12-07T03:33:10;2.10;99.90
45619;DHT22;31343;47.520;19.144;2022-12-07T03:35:42;2.10;99.90
45619;DHT22;31343;47.520;19.144;2022-12-07T03:38:25;2.00;99.90
45619;DHT22;31343;47.520;19.144;2022-12-07T03:41:01;1.90;99.90
45619;DHT22;31343;47.520;19.144;2022-12-07T03:43:29;2.00;99.90
45619;DHT22;31343;47.520;19.144;2022-12-07T03:48:37;2.00;99.90
45619;DHT22;31343;47.520;19.144;2022-12-07T03:51:26;2.00;99.90
45619;DHT22;31343;47.520;19.144;2022-12-07T03:54:26;2.00;99.90
45619;DHT22;31343;47.520;19.144;2022-12-07T03:56:54;2.00;99.90
45619;DHT22;31343;47.520;19.144;2022-12-07T03:59:21;2.10;99.90
45619;DHT22;31343;47.520;19.144;2022-12-07T04:01:55;2.30;99.90
45619;DHT22;31343;47.520;19.144;2022-12-07T04:04:23;2.50;99.90
45619;DHT22;31343;47.520;19.144;2022-12-07T04:06:50;2.60;99.90
45619;DHT22;31343;47.520;19.144;2022-12-07T04:09:16;2.60;99.90
45619;DHT22;31343;47.520;19.144;2022-12-07T04:11:43;2.70;99.90
45619;DHT22;31343;47.520;19.144;2022-12-07T04:14:08;2.80;99.90
45619;DHT22;31343;47.520;19.144;2022-12-07T04:16:52;2.60;99.90
45619;DHT22;31343;47.520;19.144;2022-12-07T04:19:20;2.60;99.90
45619;DHT22;31343;47.520;19.144;2022-12-07T04:21:47;2.60;99.90
45619;DHT22;31343;47.520;19.144;2022-12-07T04:24:14;2.60;99.90
45619;DHT22;31343;47.520;19.144;2022-12-07T04:26:40;2.50;99.90
45619;DHT22;31343;47.520;19.144;2022-12-07T04:29:07;2.50;99.90
45619;DHT22;31343;47.520;19.144;2022-12-07T04:31:34;2.50;99.90
45619;DHT22;31343;47.520;19.144;2022-12-07T04:33:59;2.50;99.90
45619;DHT22;31343;47.520;19.144;2022-12-07T04:36:25;2.50;99.90
45619;DHT22;31343;47.520;19.144;2022-12-07T04:38:53;2.50;99.90
45619;DHT22;31343;47.520;19.144;2022-12-07T04:41:20;2.40;99.90
45619;DHT22;31343;47.520;19.144;2022-12-07T04:44:02;2.40;99.90
45619;DHT22;31343;47.520;19.144;2022-12-07T04:46:30;2.40;99.90
45619;DHT22;31343;47.520;19.144;2022-12-07T04:48:56;2.40;99.90
45619;DHT22;31343;47.520;19.144;2022-12-07T04:51:25;2.40;99.90
45619;DHT22;31343;47.520;19.144;2022-12-07T04:53:51;2.50;99.90
45619;DHT22;31343;47.520;19.144;2022-12-07T04:56:18;2.60;99.90
45619;DHT22;31343;47.520;19.144;2022-12-07T04:58:45;2.60;99.90
45619;DHT22;31343;47.520;19.144;2022-12-07T05:01:11;2.60;99.90
45619;DHT22;31343;47.520;19.144;2022-12-07T05:03:37;2.60;99.90
45619;DHT22;31343;47.520;19.144;2022-12-07T05:06:04;2.60;99.90
45619;DHT22;31343;47.520;19.144;2022-12-07T05:08:30;2.60;99.90
45619;DHT22;31343;47.520;19.144;2022-12-07T05:10:55;2.60;99.90
45619;DHT22;31343;47.520;19.144;2022-12-07T05:13:21;2.70;99.90
45619;DHT22;31343;47.520;19.144;2022-12-07T05:15:47;2.70;99.90
45619;DHT22;31343;47.520;19.144;2022-12-07T05:18:13;2.80;99.90
45619;DHT22;31343;47.520;19.144;2022-12-07T05:20:40;2.70;99.90
45619;DHT22;31343;47.520;19.144;2022-12-07T05:23:06;2.70;99.90
45619;DHT22;31343;47.520;19.144;2022-12-07T05:25:31;2.70;99.90
45619;DHT22;31343;47.520;19.144;2022-12-07T05:27:57;2.70;99.90
45619;DHT22;31343;47.520;19.144;2022-12-07T05:30:24;2.70;99.90
45619;DHT22;31343;47.520;19.144;2022-12-07T05:32:49;2.70;99.90
45619;DHT22;31343;47.520;19.144;2022-12-07T05:35:15;2.70;99.90
45619;DHT22;31343;47.520;19.144;2022-12-07T05:37:41;2.70;99.90
45619;DHT22;31343;47.520;19.144;2022-12-07T05:40:08;2.80;99.90
45619;DHT22;31343;47.520;19.144;2022-12-07T05:42:34;2.80;99.90
45619;DHT22;31343;47.520;19.144;2022-12-07T05:44:59;3.00;99.90
45619;DHT22;31343;47.520;19.144;2022-12-07T05:47:25;3.00;99.90
45619;DHT22;31343;47.520;19.144;2022-12-07T05:49:51;3.10;99.90
45619;DHT22;31343;47.520;19.144;2022-12-07T05:52:16;3.10;99.90
45619;DHT22;31343;47.520;19.144;2022-12-07T05:54:42;3.10;99.90
45619;DHT22;31343;47.520;19.144;2022-12-07T05:57:08;3.10;99.90
45619;DHT22;31343;47.520;19.144;2022-12-07T05:59:34;3.10;99.90
45619;DHT22;31343;47.520;19.144;2022-12-07T06:02:08;3.20;99.90
45619;DHT22;31343;47.520;19.144;2022-12-07T06:04:35;2.90;99.90
45619;DHT22;31343;47.520;19.144;2022-12-07T06:07:01;2.80;99.90
45619;DHT22;31343;47.520;19.144;2022-12-07T06:09:28;2.70;99.90
45619;DHT22;31343;47.520;19.144;2022-12-07T06:11:54;2.70;99.90
45619;DHT22;31343;47.520;19.144;2022-12-07T06:14:38;2.60;99.90
45619;DHT22;31343;47.520;19.144;2022-12-07T06:17:04;2.70;99.90
45619;DHT22;31343;47.520;19.144;2022-12-07T06:19:30;2.80;99.90
45619;DHT22;31343;47.520;19.144;2022-12-07T06:21:57;2.80;99.90
45619;DHT22;31343;47.520;19.144;2022-12-07T06:24:23;2.70;99.90
45619;DHT22;31343;47.520;19.144;2022-12-07T06:26:48;2.80;99.90
45619;DHT22;31343;47.520;19.144;2022-12-07T06:29:16;2.80;99.90
45619;DHT22;31343;47.520;19.144;2022-12-07T06:31:41;2.80;99.90
45619;DHT22;31343;47.520;19.144;2022-12-07T06:34:11;2.80;99.90
45619;DHT22;31343;47.520;19.144;2022-12-07T06:36:37;2.70;99.90
45619;DHT22;31343;47.520;19.144;2022-12-07T06:39:04;2.70;99.90
45619;DHT22;31343;47.520;19.144;2022-12-07T06:41:30;2.60;99.90
45619;DHT22;31343;47.520;19.144;2022-12-07T06:43:55;2.60;99.90
45619;DHT22;31343;47.520;19.144;2022-12-07T06:46:21;2.50;99.90
45619;DHT22;31343;47.520;19.144;2022-12-07T06:48:47;2.50;99.90
45619;DHT22;31343;47.520;19.144;2022-12-07T06:51:13;2.40;99.90
45619;DHT22;31343;47.520;19.144;2022-12-07T06:53:38;2.50;99.90
45619;DHT22;31343;47.520;19.144;2022-12-07T06:56:04;2.40;99.90
45619;DHT22;31343;47.520;19.144;2022-12-07T06:58:30;2.50;99.90
45619;DHT22;31343;47.520;19.144;2022-12-07T07:00:56;2.60;99.90
45619;DHT22;31343;47.520;19.144;2022-12-07T07:03:22;2.50;99.90
45619;DHT22;31343;47.520;19.144;2022-12-07T07:05:48;2.60;99.90
45619;DHT22;31343;47.520;19.144;2022-12-07T07:08:14;2.60;99.90
45619;DHT22;31343;47.520;19.144;2022-12-07T07:10:40;2.70;99.90
45619;DHT22;31343;47.520;19.144;2022-12-07T07:13:06;2.60;99.90
45619;DHT22;31343;47.520;19.144;2022-12-07T07:15:33;2.70;99.90
45619;DHT22;31343;47.520;19.144;2022-12-07T07:18:00;2.80;99.90
45619;DHT22;31343;47.520;19.144;2022-12-07T07:20:26;2.70;99.90
45619;DHT22;31343;47.520;19.144;2022-12-07T07:22:54;2.80;99.90
45619;DHT22;31343;47.520;19.144;2022-12-07T07:25:20;2.80;99.90
45619;DHT22;31343;47.520;19.144;2022-12-07T07:27:46;2.90;99.90
45619;DHT22;31343;47.520;19.144;2022-12-07T07:30:12;2.90;99.90
45619;DHT22;31343;47.520;19.144;2022-12-07T07:32:37;3.00;99.90
45619;DHT22;31343;47.520;19.144;2022-12-07T07:35:03;3.00;99.90
45619;DHT22;31343;47.520;19.144;2022-12-07T07:37:29;3.00;99.90
45619;DHT22;31343;47.520;19.144;2022-12-07T07:39:55;3.10;99.90
45619;DHT22;31343;47.520;19.144;2022-12-07T07:42:20;3.20;99.90
45619;DHT22;31343;47.520;19.144;2022-12-07T07:44:46;3.20;99.90
45619;DHT22;31343;47.520;19.144;2022-12-07T07:47:12;3.30;99.90
45619;DHT22;31343;47.520;19.144;2022-12-07T07:49:37;3.30;99.90
45619;DHT22;31343;47.520;19.144;2022-12-07T07:52:05;3.40;99.90
45619;DHT22;31343;47.520;19.144;2022-12-07T07:54:31;3.50;99.90
45619;DHT22;31343;47.520;19.144;2022-12-07T07:56:58;3.50;99.90
45619;DHT22;31343;47.520;19.144;2022-12-07T07:59:23;3.70;99.90
45619;DHT22;31343;47.520;19.144;2022-12-07T08:01:50;3.70;99.90
45619;DHT22;31343;47.520;19.144;2022-12-07T08:04:16;3.80;99.90
45619;DHT22;31343;47.520;19.144;2022-12-07T08:06:41;3.80;99.90
45619;DHT22;31343;47.520;19.144;2022-12-07T08:09:08;3.90;99.90
45619;DHT22;31343;47.520;19.144;2022-12-07T08:11:34;3.90;99.90
45619;DHT22;31343;47.520;19.144;2022-12-07T08:14:01;4.00;99.90
45619;DHT22;31343;47.520;19.144;2022-12-07T08:16:27;4.00;99.90
45619;DHT22;31343;47.520;19.144;2022-12-07T08:18:53;4.10;99.90
45619;DHT22;31343;47.520;19.144;2022-12-07T08:21:18;4.20;99.90
45619;DHT22;31343;47.520;19.144;2022-12-07T08:23:44;4.30;99.90
45619;DHT22;31343;47.520;19.144;2022-12-07T08:26:13;4.30;99.90
45619;DHT22;31343;47.520;19.144;2022-12-07T08:28:39;4.40;99.90
45619;DHT22;31343;47.520;19.144;2022-12-07T08:31:08;4.50;99.90
45619;DHT22;31343;47.520;19.144;2022-12-07T08:33:35;4.60;99.90
45619;DHT22;31343;47.520;19.144;2022-12-07T08:36:06;4.60;99.90
45619;DHT22;31343;47.520;19.144;2022-12-07T08:38:33;4.60;99.90
45619;DHT22;31343;47.520;19.144;2022-12-07T08:40:59;4.70;99.90
45619;DHT22;31343;47.520;19.144;2022-12-07T08:43:25;4.70;99.90
45619;DHT22;31343;47.520;19.144;2022-12-07T08:46:10;4.70;99.90
45619;DHT22;31343;47.520;19.144;2022-12-07T08:48:40;4.70;99.90
45619;DHT22;31343;47.520;19.144;2022-12-07T08:51:06;4.90;99.90
45619;DHT22;31343;47.520;19.144;2022-12-07T08:53:33;4.90;99.90
45619;DHT22;31343;47.520;19.144;2022-12-07T08:56:00;5.00;99.90
45619;DHT22;31343;47.520;19.144;2022-12-07T08:58:26;5.20;99.90
45619;DHT22;31343;47.520;19.144;2022-12-07T09:00:52;5.40;99.90
45619;DHT22;31343;47.520;19.144;2022-12-07T09:03:18;5.60;99.90
45619;DHT22;31343;47.520;19.144;2022-12-07T09:05:44;5.60;99.90
45619;DHT22;31343;47.520;19.144;2022-12-07T09:08:10;5.60;99.90
45619;DHT22;31343;47.520;19.144;2022-12-07T09:10:36;5.70;99.90
45619;DHT22;31343;47.520;19.144;2022-12-07T09:13:01;5.80;99.90
45619;DHT22;31343;47.520;19.144;2022-12-07T09:15:28;6.00;99.90
45619;DHT22;31343;47.520;19.144;2022-12-07T09:17:54;6.30;99.90
45619;DHT22;31343;47.520;19.144;2022-12-07T09:20:20;6.50;99.90
45619;DHT22;31343;47.520;19.144;2022-12-07T09:22:46;6.70;99.90
45619;DHT22;31343;47.520;19.144;2022-12-07T09:25:12;6.80;99.90
45619;DHT22;31343;47.520;19.144;2022-12-07T09:27:38;6.90;99.90
45619;DHT22;31343;47.520;19.144;2022-12-07T09:30:04;7.00;99.90
45619;DHT22;31343;47.520;19.144;2022-12-07T09:32:30;7.00;99.90
45619;DHT22;31343;47.520;19.144;2022-12-07T09:34:56;7.10;99.90
45619;DHT22;31343;47.520;19.144;2022-12-07T09:37:22;7.20;99.90
45619;DHT22;31343;47.520;19.144;2022-12-07T09:39:48;7.30;99.90
45619;DHT22;31343;47.520;19.144;2022-12-07T09:42:35;7.20;99.90
45619;DHT22;31343;47.520;19.144;2022-12-07T09:45:04;7.00;99.90
45619;DHT22;31343;47.520;19.144;2022-12-07T09:47:30;6.70;99.90
45619;DHT22;31343;47.520;19.144;2022-12-07T09:50:04;6.70;99.90
45619;DHT22;31343;47.520;19.144;2022-12-07T09:52:30;6.80;99.90
45619;DHT22;31343;47.520;19.144;2022-12-07T09:54:57;6.80;99.90
45619;DHT22;31343;47.520;19.144;2022-12-07T09:57:31;6.90;99.90
45619;DHT22;31343;47.520;19.144;2022-12-07T10:00:03;6.80;99.90
45619;DHT22;31343;47.520;19.144;2022-12-07T10:02:40;6.90;99.90
45619;DHT22;31343;47.520;19.144;2022-12-07T10:05:13;6.80;99.90
45619;DHT22;31343;47.520;19.144;2022-12-07T10:07:39;7.00;99.90
45619;DHT22;31343;47.520;19.144;2022-12-07T10:10:17;7.20;99.90
45619;DHT22;31343;47.520;19.144;2022-12-07T10:13:00;7.30;99.90
45619;DHT22;31343;47.520;19.144;2022-12-07T10:15:47;7.50;99.90
45619;DHT22;31343;47.520;19.144;2022-12-07T10:18:29;7.50;99.90
45619;DHT22;31343;47.520;19.144;2022-12-07T10:21:15;7.70;99.90
45619;DHT22;31343;47.520;19.144;2022-12-07T10:24:13;7.80;99.90
45619;DHT22;31343;47.520;19.144;2022-12-07T10:29:31;8.00;99.90
45619;DHT22;31343;47.520;19.144;2022-12-07T10:31:59;8.20;99.90
45619;DHT22;31343;47.520;19.144;2022-12-07T10:34:28;8.20;99.90
45619;DHT22;31343;47.520;19.144;2022-12-07T10:39:52;8.40;99.90
45619;DHT22;31343;47.520;19.144;2022-12-07T10:44:50;8.20;99.90
45619;DHT22;31343;47.520;19.144;2022-12-07T10:47:36;8.30;99.90
45619;DHT22;31343;47.520;19.144;2022-12-07T10:50:28;8.30;99.90
45619;DHT22;31343;47.520;19.144;2022-12-07T10:56:11;8.40;99.90
45619;DHT22;31343;47.520;19.144;2022-12-07T11:01:45;8.70;99.90
45619;DHT22;31343;47.520;19.144;2022-12-07T11:06:54;8.40;99.90
45619;DHT22;31343;47.520;19.144;2022-12-07T11:17:36;8.60;99.90
45619;DHT22;31343;47.520;19.144;2022-12-07T11:25:24;8.70;99.90
45619;DHT22;31343;47.520;19.144;2022-12-07T11:28:11;8.70;99.90
45619;DHT22;31343;47.520;19.144;2022-12-07T11:39:30;8.70;99.90
45619;DHT22;31343;47.520;19.144;2022-12-07T11:42:06;8.70;99.90
45619;DHT22;31343;47.520;19.144;2022-12-07T11:45:01;8.70;99.90
45619;DHT22;31343;47.520;19.144;2022-12-07T11:55:53;8.90;99.90
45619;DHT22;31343;47.520;19.144;2022-12-07T12:01:34;9.10;99.90
45619;DHT22;31343;47.520;19.144;2022-12-07T12:06:26;9.00;99.90
45619;DHT22;31343;47.520;19.144;2022-12-07T12:23:07;9.90;99.90
45619;DHT22;31343;47.520;19.144;2022-12-07T12:25:50;10.30;99.90
45619;DHT22;31343;47.520;19.144;2022-12-07T12:28:31;11.10;99.90
45619;DHT22;31343;47.520;19.144;2022-12-07T12:33:38;10.90;98.80
45619;DHT22;31343;47.520;19.144;2022-12-07T12:47:37;9.60;99.90
45619;DHT22;31343;47.520;19.144;2022-12-07T12:49:43;10.00;99.90
45619;DHT22;31343;47.520;19.144;2022-12-07T12:55:12;9.50;99.90
45619;DHT22;31343;47.520;19.144;2022-12-07T12:57:38;9.40;99.90
45619;DHT22;31343;47.520;19.144;2022-12-07T13:00:23;9.40;99.90
45619;DHT22;31343;47.520;19.144;2022-12-07T13:02:59;9.30;99.90
45619;DHT22;31343;47.520;19.144;2022-12-07T13:05:27;9.20;99.90
45619;DHT22;31343;47.520;19.144;2022-12-07T13:15:45;8.70;99.90
45619;DHT22;31343;47.520;19.144;2022-12-07T13:23:37;8.20;99.90
45619;DHT22;31343;47.520;19.144;2022-12-07T13:26:23;8.20;99.90
45619;DHT22;31343;47.520;19.144;2022-12-07T13:28:52;8.20;99.90
45619;DHT22;31343;47.520;19.144;2022-12-07T13:34:04;8.10;99.90
45619;DHT22;31343;47.520;19.144;2022-12-07T13:36:33;8.20;99.90
45619;DHT22;31343;47.520;19.144;2022-12-07T13:41:42;7.90;99.90
45619;DHT22;31343;47.520;19.144;2022-12-07T13:44:15;7.90;99.90
45619;DHT22;31343;47.520;19.144;2022-12-07T13:49:54;7.80;99.90
45619;DHT22;31343;47.520;19.144;2022-12-07T13:55:00;7.60;99.90
45619;DHT22;31343;47.520;19.144;2022-12-07T13:57:28;7.50;99.90
45619;DHT22;31343;47.520;19.144;2022-12-07T13:59:56;7.50;99.90
45619;DHT22;31343;47.520;19.144;2022-12-07T14:02:30;7.40;99.90
45619;DHT22;31343;47.520;19.144;2022-12-07T14:05:23;7.30;99.90
45619;DHT22;31343;47.520;19.144;2022-12-07T14:10:33;7.30;99.90
45619;DHT22;31343;47.520;19.144;2022-12-07T14:13:00;7.40;99.90
45619;DHT22;31343;47.520;19.144;2022-12-07T14:15:34;7.30;99.90
45619;DHT22;31343;47.520;19.144;2022-12-07T14:18:01;7.30;99.90
45619;DHT22;31343;47.520;19.144;2022-12-07T14:20:40;7.20;99.90
45619;DHT22;31343;47.520;19.144;2022-12-07T14:23:23;7.20;99.90
45619;DHT22;31343;47.520;19.144;2022-12-07T14:25:51;7.10;99.90
45619;DHT22;31343;47.520;19.144;2022-12-07T14:28:29;7.10;99.90
45619;DHT22;31343;47.520;19.144;2022-12-07T14:30:56;7.00;99.90
45619;DHT22;31343;47.520;19.144;2022-12-07T14:33:21;6.90;99.90
45619;DHT22;31343;47.520;19.144;2022-12-07T14:35:48;6.90;99.90
45619;DHT22;31343;47.520;19.144;2022-12-07T14:38:14;6.80;99.90
45619;DHT22;31343;47.520;19.144;2022-12-07T14:40:40;6.70;99.90
45619;DHT22;31343;47.520;19.144;2022-12-07T14:43:10;6.60;99.90
45619;DHT22;31343;47.520;19.144;2022-12-07T14:45:37;6.50;99.90
45619;DHT22;31343;47.520;19.144;2022-12-07T14:48:03;6.60;99.90
45619;DHT22;31343;47.520;19.144;2022-12-07T14:50:29;6.40;99.90
45619;DHT22;31343;47.520;19.144;2022-12-07T14:53:08;6.30;99.90
45619;DHT22;31343;47.520;19.144;2022-12-07T14:55:35;6.30;99.90
45619;DHT22;31343;47.520;19.144;2022-12-07T14:58:01;6.30;99.90
45619;DHT22;31343;47.520;19.144;2022-12-07T15:00:28;6.20;99.90
45619;DHT22;31343;47.520;19.144;2022-12-07T15:02:54;6.20;99.90
45619;DHT22;31343;47.520;19.144;2022-12-07T15:05:20;6.10;99.90
45619;DHT22;31343;47.520;19.144;2022-12-07T15:07:47;6.10;99.90
45619;DHT22;31343;47.520;19.144;2022-12-07T15:10:17;6.00;99.90
45619;DHT22;31343;47.520;19.144;2022-12-07T15:12:43;5.90;99.90
45619;DHT22;31343;47.520;19.144;2022-12-07T15:15:09;5.90;99.90
45619;DHT22;31343;47.520;19.144;2022-12-07T15:17:35;5.80;99.90
45619;DHT22;31343;47.520;19.144;2022-12-07T15:20:01;5.80;99.90
45619;DHT22;31343;47.520;19.144;2022-12-07T15:22:27;5.80;99.90
45619;DHT22;31343;47.520;19.144;2022-12-07T15:24:52;5.70;99.90
45619;DHT22;31343;47.520;19.144;2022-12-07T15:27:18;5.60;99.90
45619;DHT22;31343;47.520;19.144;2022-12-07T15:29:44;5.60;99.90
45619;DHT22;31343;47.520;19.144;2022-12-07T15:32:09;5.50;99.90
45619;DHT22;31343;47.520;19.144;2022-12-07T15:34:35;5.50;99.90
45619;DHT22;31343;47.520;19.144;2022-12-07T15:37:02;5.50;99.90
45619;DHT22;31343;47.520;19.144;2022-12-07T15:39:28;5.40;99.90
45619;DHT22;31343;47.520;19.144;2022-12-07T15:41:54;5.20;99.90
45619;DHT22;31343;47.520;19.144;2022-12-07T15:44:19;5.20;99.90
45619;DHT22;31343;47.520;19.144;2022-12-07T15:47:04;5.10;99.90
45619;DHT22;31343;47.520;19.144;2022-12-07T15:49:30;5.00;99.90
45619;DHT22;31343;47.520;19.144;2022-12-07T15:51:56;5.00;99.90
45619;DHT22;31343;47.520;19.144;2022-12-07T15:54:25;4.90;99.90
45619;DHT22;31343;47.520;19.144;2022-12-07T15:56:51;4.80;99.90
45619;DHT22;31343;47.520;19.144;2022-12-07T15:59:17;4.80;99.90
45619;DHT22;31343;47.520;19.144;2022-12-07T16:01:43;4.60;99.90
45619;DHT22;31343;47.520;19.144;2022-12-07T16:04:09;4.50;99.90
45619;DHT22;31343;47.520;19.144;2022-12-07T16:06:35;4.50;99.90
45619;DHT22;31343;47.520;19.144;2022-12-07T16:09:01;4.40;99.90
45619;DHT22;31343;47.520;19.144;2022-12-07T16:11:27;4.40;99.90
45619;DHT22;31343;47.520;19.144;2022-12-07T16:13:52;4.30;99.90
45619;DHT22;31343;47.520;19.144;2022-12-07T16:16:19;4.30;99.90
45619;DHT22;31343;47.520;19.144;2022-12-07T16:18:47;4.20;99.90
45619;DHT22;31343;47.520;19.144;2022-12-07T16:21:14;4.30;99.90
45619;DHT22;31343;47.520;19.144;2022-12-07T16:23:41;4.30;99.90
45619;DHT22;31343;47.520;19.144;2022-12-07T16:26:18;4.40;99.90
45619;DHT22;31343;47.520;19.144;2022-12-07T16:28:44;4.30;99.90
45619;DHT22;31343;47.520;19.144;2022-12-07T16:31:13;4.30;99.90
45619;DHT22;31343;47.520;19.144;2022-12-07T16:33:40;4.20;99.90
45619;DHT22;31343;47.520;19.144;2022-12-07T16:36:07;4.10;99.90
45619;DHT22;31343;47.520;19.144;2022-12-07T16:38:35;4.10;99.90
45619;DHT22;31343;47.520;19.144;2022-12-07T16:41:00;4.20;99.90
45619;DHT22;31343;47.520;19.144;2022-12-07T16:43:26;4.10;99.90
45619;DHT22;31343;47.520;19.144;2022-12-07T16:45:52;4.10;99.90
45619;DHT22;31343;47.520;19.144;2022-12-07T16:48:18;4.10;99.90
45619;DHT22;31343;47.520;19.144;2022-12-07T16:50:44;4.00;99.90
45619;DHT22;31343;47.520;19.144;2022-12-07T16:53:11;4.00;99.90
45619;DHT22;31343;47.520;19.144;2022-12-07T16:55:38;3.90;99.90
45619;DHT22;31343;47.520;19.144;2022-12-07T16:58:05;3.70;99.90
45619;DHT22;31343;47.520;19.144;2022-12-07T17:00:31;3.70;99.90
45619;DHT22;31343;47.520;19.144;2022-12-07T17:02:57;3.60;99.90
45619;DHT22;31343;47.520;19.144;2022-12-07T17:05:23;3.50;99.90
45619;DHT22;31343;47.520;19.144;2022-12-07T17:07:50;3.50;99.90
45619;DHT22;31343;47.520;19.144;2022-12-07T17:10:16;3.40;99.90
45619;DHT22;31343;47.520;19.144;2022-12-07T17:12:41;3.40;99.90
45619;DHT22;31343;47.520;19.144;2022-12-07T17:15:08;3.40;99.90
45619;DHT22;31343;47.520;19.144;2022-12-07T17:17:44;3.40;99.90
45619;DHT22;31343;47.520;19.144;2022-12-07T17:20:11;3.20;99.90
45619;DHT22;31343;47.520;19.144;2022-12-07T17:22:37;3.10;99.90
45619;DHT22;31343;47.520;19.144;2022-12-07T17:25:03;3.10;99.90
45619;DHT22;31343;47.520;19.144;2022-12-07T17:27:29;3.10;99.90
45619;DHT22;31343;47.520;19.144;2022-12-07T17:29:55;3.00;99.90
45619;DHT22;31343;47.520;19.144;2022-12-07T17:32:20;3.00;99.90
45619;DHT22;31343;47.520;19.144;2022-12-07T17:34:46;2.80;99.90
45619;DHT22;31343;47.520;19.144;2022-12-07T17:37:12;2.80;99.90
45619;DHT22;31343;47.520;19.144;2022-12-07T17:39:37;2.90;99.90
45619;DHT22;31343;47.520;19.144;2022-12-07T17:42:03;2.80;99.90
45619;DHT22;31343;47.520;19.144;2022-12-07T17:44:47;2.90;99.90
45619;DHT22;31343;47.520;19.144;2022-12-07T17:47:13;2.90;99.90
45619;DHT22;31343;47.520;19.144;2022-12-07T17:49:41;2.90;99.90
45619;DHT22;31343;47.520;19.144;2022-12-07T17:52:07;2.90;99.90
45619;DHT22;31343;47.520;19.144;2022-12-07T17:54:53;2.90;99.90
45619;DHT22;31343;47.520;19.144;2022-12-07T17:57:19;2.80;99.90
45619;DHT22;31343;47.520;19.144;2022-12-07T17:59:45;2.80;99.90
45619;DHT22;31343;47.520;19.144;2022-12-07T18:02:10;2.70;99.90
45619;DHT22;31343;47.520;19.144;2022-12-07T18:04:36;2.80;99.90
45619;DHT22;31343;47.520;19.144;2022-12-07T18:07:03;2.80;99.90